sensor_id;sensor_type;location;lat;lon;timestamp;pressure;altitude;pressure_sealevel;temperature;humidity
13695;BME280;6919;52.344;14.518;2023-03-08T00:01:24;98895.25;;;1.48;100.00
13695;BME280;6919;52.344;14.518;2023-03-08T00:03:53;98886.50;;;1.38;100.00
13695;BME280;6919;52.344;14.518;2023-03-08T00:06:24;98890.50;;;1.42;100.00
13695;BME280;6919;52.344;14.518;2023-03-08T00:08:55;98897.72;;;1.30;100.00
13695;BME280;6919;52.344;14.518;2023-03-08T00:11:25;98899.41;;;1.60;100.00
13695;BME280;6919;52.344;14.518;2023-03-08T00:13:54;98904.00;;;1.39;100.00
13695;BME280;6919;52.344;14.518;2023-03-08T00:16:23;98905.81;;;1.57;100.00
13695;BME280;6919;52.344;14.518;2023-03-08T00:18:52;98914.00;;;1.45;100.00
13695;BME280;6919;52.344;14.518;2023-03-08T00:21:21;98908.16;;;1.32;100.00
13695;BME280;6919;52.344;14.518;2023-03-08T00:23:51;98916.91;;;1.23;100.00
13695;BME280;6919;52.344;14.518;2023-03-08T00:26:21;98919.81;;;1.20;100.00
13695;BME280;6919;52.344;14.518;2023-03-08T00:28:50;98926.50;;;1.24;100.00
13695;BME280;6919;52.344;14.518;2023-03-08T00:31:20;98923.03;;;1.33;100.00
13695;BME280;6919;52.344;14.518;2023-03-08T00:33:52;98925.50;;;1.15;100.00
13695;BME280;6919;52.344;14.518;2023-03-08T00:36:21;98934.41;;;1.14;100.00
13695;BME280;6919;52.344;14.518;2023-03-08T00:38:50;98926.47;;;1.05;100.00
13695;BME280;6919;52.344;14.518;2023-03-08T00:41:19;98938.28;;;1.20;100.00
13695;BME280;6919;52.344;14.518;2023-03-08T00:43:49;98934.25;;;1.16;100.00
13695;BME280;6919;52.344;14.518;2023-03-08T00:46:18;98945.06;;;1.03;100.00
13695;BME280;6919;52.344;14.518;2023-03-08T00:48:46;98939.91;;;1.02;100.00
13695;BME280;6919;52.344;14.518;2023-03-08T00:51:17;98939.75;;;0.94;100.00
13695;BME280;6919;52.344;14.518;2023-03-08T00:53:47;98939.47;;;0.97;100.00
13695;BME280;6919;52.344;14.518;2023-03-08T00:56:16;98940.53;;;1.24;100.00
13695;BME280;6919;52.344;14.518;2023-03-08T00:58:45;98942.72;;;1.19;100.00
13695;BME280;6919;52.344;14.518;2023-03-08T01:01:17;98941.44;;;0.95;100.00
13695;BME280;6919;52.344;14.518;2023-03-08T01:03:46;98944.06;;;0.95;100.00
13695;BME280;6919;52.344;14.518;2023-03-08T01:06:15;98954.34;;;0.98;100.00
13695;BME280;6919;52.344;14.518;2023-03-08T01:08:44;98944.63;;;0.98;100.00
13695;BME280;6919;52.344;14.518;2023-03-08T01:11:18;98954.34;;;0.98;100.00
13695;BME280;6919;52.344;14.518;2023-03-08T01:13:47;98940.59;;;0.94;100.00
13695;BME280;6919;52.344;14.518;2023-03-08T01:16:20;98949.47;;;0.93;100.00
13695;BME280;6919;52.344;14.518;2023-03-08T01:18:49;98962.69;;;1.03;100.00
13695;BME280;6919;52.344;14.518;2023-03-08T01:21:18;98957.50;;;0.82;100.00
13695;BME280;6919;52.344;14.518;2023-03-08T01:23:48;98964.03;;;0.88;100.00
13695;BME280;6919;52.344;14.518;2023-03-08T01:26:18;98952.91;;;0.84;100.00
13695;BME280;6919;52.344;14.518;2023-03-08T01:28:48;98951.50;;;0.80;100.00
13695;BME280;6919;52.344;14.518;2023-03-08T01:31:20;98948.59;;;0.83;100.00
13695;BME280;6919;52.344;14.518;2023-03-08T01:33:49;98953.16;;;0.81;100.00
13695;BME280;6919;52.344;14.518;2023-03-08T01:36:20;98954.97;;;0.71;100.00
13695;BME280;6919;52.344;14.518;2023-03-08T01:38:49;98960.78;;;0.75;100.00
13695;BME280;6919;52.344;14.518;2023-03-08T01:41:20;98964.63;;;1.01;100.00
13695;BME280;6919;52.344;14.518;2023-03-08T01:43:50;98964.94;;;0.77;100.00
13695;BME280;6919;52.344;14.518;2023-03-08T01:46:26;98962.88;;;0.71;100.00
13695;BME280;6919;52.344;14.518;2023-03-08T01:48:58;98965.78;;;0.68;100.00
13695;BME280;6919;52.344;14.518;2023-03-08T01:51:34;98970.91;;;0.70;100.00
13695;BME280;6919;52.344;14.518;2023-03-08T01:54:08;98980.88;;;0.66;100.00
13695;BME280;6919;52.344;14.518;2023-03-08T01:56:39;98982.94;;;0.63;100.00
13695;BME280;6919;52.344;14.518;2023-03-08T01:59:08;98981.25;;;0.62;100.00
13695;BME280;6919;52.344;14.518;2023-03-08T02:01:39;98980.44;;;0.61;100.00
13695;BME280;6919;52.344;14.518;2023-03-08T02:04:09;98983.34;;;0.58;100.00
13695;BME280;6919;52.344;14.518;2023-03-08T02:06:38;98973.53;;;0.70;100.00
13695;BME280;6919;52.344;14.518;2023-03-08T02:09:08;98972.53;;;0.61;100.00
13695;BME280;6919;52.344;14.518;2023-03-08T02:11:38;98977.69;;;0.63;100.00
13695;BME280;6919;52.344;14.518;2023-03-08T02:14:08;98977.69;;;0.63;100.00
13695;BME280;6919;52.344;14.518;2023-03-08T02:16:38;98982.94;;;0.63;100.00
13695;BME280;6919;52.344;14.518;2023-03-08T02:19:11;98979.38;;;0.73;100.00
13695;BME280;6919;52.344;14.518;2023-03-08T02:21:44;98980.47;;;0.71;100.00
13695;BME280;6919;52.344;14.518;2023-03-08T02:24:21;98972.94;;;0.57;100.00
13695;BME280;6919;52.344;14.518;2023-03-08T02:26:53;98991.00;;;0.61;100.00
13695;BME280;6919;52.344;14.518;2023-03-08T02:29:24;98984.47;;;0.65;100.00
13695;BME280;6919;52.344;14.518;2023-03-08T02:31:53;98982.09;;;0.62;100.00
13695;BME280;6919;52.344;14.518;2023-03-08T02:34:22;98987.50;;;0.61;100.00
13695;BME280;6919;52.344;14.518;2023-03-08T02:36:51;98996.69;;;0.66;100.00
13695;BME280;6919;52.344;14.518;2023-03-08T02:39:21;98994.50;;;0.71;100.00
13695;BME280;6919;52.344;14.518;2023-03-08T02:41:49;98996.72;;;0.76;100.00
13695;BME280;6919;52.344;14.518;2023-03-08T02:44:18;98999.78;;;0.71;100.00
13695;BME280;6919;52.344;14.518;2023-03-08T02:46:47;98988.72;;;0.87;100.00
13695;BME280;6919;52.344;14.518;2023-03-08T02:49:15;99000.16;;;0.97;100.00
13695;BME280;6919;52.344;14.518;2023-03-08T02:51:44;99001.91;;;1.17;100.00
13695;BME280;6919;52.344;14.518;2023-03-08T02:54:12;98998.66;;;1.04;100.00
13695;BME280;6919;52.344;14.518;2023-03-08T02:56:44;98996.25;;;0.91;100.00
13695;BME280;6919;52.344;14.518;2023-03-08T02:59:13;98995.44;;;0.91;100.00
13695;BME280;6919;52.344;14.518;2023-03-08T03:01:41;99003.22;;;0.92;100.00
13695;BME280;6919;52.344;14.518;2023-03-08T03:04:10;99002.16;;;1.14;100.00
13695;BME280;6919;52.344;14.518;2023-03-08T03:06:38;99006.53;;;0.94;100.00
13695;BME280;6919;52.344;14.518;2023-03-08T03:09:07;99003.16;;;1.13;100.00
13695;BME280;6919;52.344;14.518;2023-03-08T03:11:38;99003.00;;;1.05;100.00
13695;BME280;6919;52.344;14.518;2023-03-08T03:14:08;99010.94;;;0.84;100.00
13695;BME280;6919;52.344;14.518;2023-03-08T03:16:37;99007.34;;;0.85;100.00
13695;BME280;6919;52.344;14.518;2023-03-08T03:19:05;99011.47;;;1.08;100.00
13695;BME280;6919;52.344;14.518;2023-03-08T03:21:34;99009.16;;;0.85;100.00
13695;BME280;6919;52.344;14.518;2023-03-08T03:24:02;99012.09;;;1.01;100.00
13695;BME280;6919;52.344;14.518;2023-03-08T03:26:31;99009.81;;;1.17;100.00
13695;BME280;6919;52.344;14.518;2023-03-08T03:29:00;99006.66;;;0.93;100.00
13695;BME280;6919;52.344;14.518;2023-03-08T03:31:29;99010.41;;;0.90;100.00
13695;BME280;6919;52.344;14.518;2023-03-08T03:33:58;99014.13;;;0.78;100.00
13695;BME280;6919;52.344;14.518;2023-03-08T03:36:27;99013.28;;;0.78;100.00
13695;BME280;6919;52.344;14.518;2023-03-08T03:38:55;99020.31;;;0.98;100.00
13695;BME280;6919;52.344;14.518;2023-03-08T03:41:25;99020.13;;;0.90;100.00
13695;BME280;6919;52.344;14.518;2023-03-08T03:43:54;99022.06;;;0.88;100.00
13695;BME280;6919;52.344;14.518;2023-03-08T03:46:22;99027.34;;;0.88;100.00
13695;BME280;6919;52.344;14.518;2023-03-08T03:48:52;99029.28;;;0.86;100.00
13695;BME280;6919;52.344;14.518;2023-03-08T03:51:22;99027.69;;;1.04;100.00
13695;BME280;6919;52.344;14.518;2023-03-08T03:53:51;99033.38;;;0.99;100.00
13695;BME280;6919;52.344;14.518;2023-03-08T03:56:21;99031.56;;;1.00;100.00
13695;BME280;6919;52.344;14.518;2023-03-08T03:58:50;99033.44;;;1.18;100.00
13695;BME280;6919;52.344;14.518;2023-03-08T04:01:20;99034.72;;;0.94;100.00
13695;BME280;6919;52.344;14.518;2023-03-08T04:03:52;99035.56;;;0.94;100.00
13695;BME280;6919;52.344;14.518;2023-03-08T04:06:22;99048.09;;;1.02;100.00
13695;BME280;6919;52.344;14.518;2023-03-08T04:08:52;99049.34;;;0.98;100.00
13695;BME280;6919;52.344;14.518;2023-03-08T04:11:23;99051.78;;;0.90;100.00
13695;BME280;6919;52.344;14.518;2023-03-08T04:13:53;99049.34;;;0.98;100.00
13695;BME280;6919;52.344;14.518;2023-03-08T04:16:23;99052.59;;;0.81;100.00
13695;BME280;6919;52.344;14.518;2023-03-08T04:18:57;99056.25;;;0.89;100.00
13695;BME280;6919;52.344;14.518;2023-03-08T04:21:27;99053.78;;;0.97;100.00
13695;BME280;6919;52.344;14.518;2023-03-08T04:23:56;99057.84;;;0.81;100.00
13695;BME280;6919;52.344;14.518;2023-03-08T04:26:27;99057.72;;;0.82;100.00
13695;BME280;6919;52.344;14.518;2023-03-08T04:28:55;99059.81;;;0.88;100.00
13695;BME280;6919;52.344;14.518;2023-03-08T04:31:26;99067.53;;;1.01;100.00
13695;BME280;6919;52.344;14.518;2023-03-08T04:33:57;99077.91;;;0.93;100.00
13695;BME280;6919;52.344;14.518;2023-03-08T04:36:26;99076.34;;;1.20;100.00
13695;BME280;6919;52.344;14.518;2023-03-08T04:38:54;99066.66;;;1.21;100.00
13695;BME280;6919;52.344;14.518;2023-03-08T04:41:23;99059.94;;;1.07;100.00
13695;BME280;6919;52.344;14.518;2023-03-08T04:43:54;99055.22;;;1.11;100.00
13695;BME280;6919;52.344;14.518;2023-03-08T04:46:25;99066.75;;;1.10;100.00
13695;BME280;6919;52.344;14.518;2023-03-08T04:48:56;99067.53;;;1.01;100.00
13695;BME280;6919;52.344;14.518;2023-03-08T04:51:26;99064.22;;;1.08;100.00
13695;BME280;6919;52.344;14.518;2023-03-08T04:53:54;99067.41;;;1.02;100.00
13695;BME280;6919;52.344;14.518;2023-03-08T04:56:23;99067.13;;;1.05;100.00
13695;BME280;6919;52.344;14.518;2023-03-08T04:58:52;99064.50;;;1.05;100.00
13695;BME280;6919;52.344;14.518;2023-03-08T05:01:22;99065.50;;;1.14;100.00
13695;BME280;6919;52.344;14.518;2023-03-08T05:03:51;99066.03;;;1.08;100.00
13695;BME280;6919;52.344;14.518;2023-03-08T05:06:23;99072.41;;;1.05;100.00
13695;BME280;6919;52.344;14.518;2023-03-08T05:08:53;99070.50;;;1.07;100.00
13695;BME280;6919;52.344;14.518;2023-03-08T05:11:24;99061.28;;;1.02;100.00
13695;BME280;6919;52.344;14.518;2023-03-08T05:13:53;99069.69;;;0.86;100.00
13695;BME280;6919;52.344;14.518;2023-03-08T05:16:22;99076.94;;;0.94;100.00
13695;BME280;6919;52.344;14.518;2023-03-08T05:18:52;99075.31;;;1.02;100.00
13695;BME280;6919;52.344;14.518;2023-03-08T05:21:22;99080.03;;;0.99;100.00
13695;BME280;6919;52.344;14.518;2023-03-08T05:23:50;99084.84;;;0.94;100.00
13695;BME280;6919;52.344;14.518;2023-03-08T05:26:19;99076.81;;;0.95;100.00
13695;BME280;6919;52.344;14.518;2023-03-08T05:28:48;99080.25;;;0.86;100.00
13695;BME280;6919;52.344;14.518;2023-03-08T05:31:18;99082.03;;;0.86;100.00
13695;BME280;6919;52.344;14.518;2023-03-08T05:33:49;99079.78;;;0.81;100.00
13695;BME280;6919;52.344;14.518;2023-03-08T05:36:18;99081.13;;;0.76;100.00
13695;BME280;6919;52.344;14.518;2023-03-08T05:38:52;99085.72;;;0.74;100.00
13695;BME280;6919;52.344;14.518;2023-03-08T05:41:21;99088.34;;;0.74;100.00
13695;BME280;6919;52.344;14.518;2023-03-08T05:43:49;99083.91;;;0.74;100.00
13695;BME280;6919;52.344;14.518;2023-03-08T05:46:18;99091.81;;;0.74;100.00
13695;BME280;6919;52.344;14.518;2023-03-08T05:48:47;99104.25;;;0.63;100.00
13695;BME280;6919;52.344;14.518;2023-03-08T05:51:17;99105.19;;;0.62;100.00
13695;BME280;6919;52.344;14.518;2023-03-08T05:53:47;99113.09;;;0.62;100.00
13695;BME280;6919;52.344;14.518;2023-03-08T05:56:17;99108.47;;;0.95;100.00
13695;BME280;6919;52.344;14.518;2023-03-08T05:58:47;99110.72;;;1.00;100.00
13695;BME280;6919;52.344;14.518;2023-03-08T06:01:17;99117.31;;;0.85;100.00
13695;BME280;6919;52.344;14.518;2023-03-08T06:03:47;99127.06;;;0.94;100.00
13695;BME280;6919;52.344;14.518;2023-03-08T06:06:18;99130.16;;;0.99;100.00
13695;BME280;6919;52.344;14.518;2023-03-08T06:08:49;99128.81;;;1.04;100.00
13695;BME280;6919;52.344;14.518;2023-03-08T06:11:17;99128.34;;;0.79;100.00
13695;BME280;6919;52.344;14.518;2023-03-08T06:13:46;99136.75;;;0.84;100.00
13695;BME280;6919;52.344;14.518;2023-03-08T06:16:15;99139.69;;;0.90;100.00
13695;BME280;6919;52.344;14.518;2023-03-08T06:18:44;99135.47;;;0.78;100.00
13695;BME280;6919;52.344;14.518;2023-03-08T06:21:14;99137.00;;;0.81;100.00
13695;BME280;6919;52.344;14.518;2023-03-08T06:23:44;99138.53;;;0.63;100.00
13695;BME280;6919;52.344;14.518;2023-03-08T06:26:15;99132.78;;;0.58;100.00
13695;BME280;6919;52.344;14.518;2023-03-08T06:28:44;99137.19;;;0.68;100.00
13695;BME280;6919;52.344;14.518;2023-03-08T06:31:14;99145.53;;;0.73;100.00
13695;BME280;6919;52.344;14.518;2023-03-08T06:33:43;99142.53;;;0.78;100.00
13695;BME280;6919;52.344;14.518;2023-03-08T06:36:13;99137.13;;;0.79;100.00
13695;BME280;6919;52.344;14.518;2023-03-08T06:38:43;99138.75;;;1.01;100.00
13695;BME280;6919;52.344;14.518;2023-03-08T06:41:14;99141.69;;;0.98;100.00
13695;BME280;6919;52.344;14.518;2023-03-08T06:43:43;99143.44;;;0.88;100.00
13695;BME280;6919;52.344;14.518;2023-03-08T06:46:14;99147.06;;;0.76;100.00
13695;BME280;6919;52.344;14.518;2023-03-08T06:48:44;99146.56;;;0.82;100.00
13695;BME280;6919;52.344;14.518;2023-03-08T06:51:13;99143.88;;;0.72;100.00
13695;BME280;6919;52.344;14.518;2023-03-08T06:53:42;99153.50;;;0.62;100.00
13695;BME280;6919;52.344;14.518;2023-03-08T06:56:14;99147.97;;;0.65;100.00
13695;BME280;6919;52.344;14.518;2023-03-08T06:58:43;99149.53;;;0.88;100.00
13695;BME280;6919;52.344;14.518;2023-03-08T07:01:12;99148.69;;;0.88;100.00
13695;BME280;6919;52.344;14.518;2023-03-08T07:03:41;99147.66;;;0.79;100.00
13695;BME280;6919;52.344;14.518;2023-03-08T07:06:11;99156.63;;;0.88;100.00
13695;BME280;6919;52.344;14.518;2023-03-08T07:08:40;99143.56;;;0.86;100.00
13695;BME280;6919;52.344;14.518;2023-03-08T07:11:09;99146.50;;;0.93;100.00
13695;BME280;6919;52.344;14.518;2023-03-08T07:13:38;99146.50;;;0.93;100.00
13695;BME280;6919;52.344;14.518;2023-03-08T07:16:09;99145.53;;;0.94;100.00
13695;BME280;6919;52.344;14.518;2023-03-08T07:18:38;99138.41;;;0.85;100.00
13695;BME280;6919;52.344;14.518;2023-03-08T07:21:08;99144.63;;;1.04;100.00
13695;BME280;6919;52.344;14.518;2023-03-08T07:23:37;99132.13;;;1.27;100.00
13695;BME280;6919;52.344;14.518;2023-03-08T07:26:06;99127.53;;;1.29;100.00
13695;BME280;6919;52.344;14.518;2023-03-08T07:28:35;99126.81;;;1.57;100.00
13695;BME280;6919;52.344;14.518;2023-03-08T07:31:08;99131.16;;;1.67;100.00
13695;BME280;6919;52.344;14.518;2023-03-08T07:33:37;99122.41;;;1.67;100.00
13695;BME280;6919;52.344;14.518;2023-03-08T07:36:06;99120.28;;;1.61;100.00
13695;BME280;6919;52.344;14.518;2023-03-08T07:38:35;99127.78;;;1.95;100.00
13695;BME280;6919;52.344;14.518;2023-03-08T07:41:04;99122.91;;;2.10;100.00
13695;BME280;6919;52.344;14.518;2023-03-08T07:43:32;99125.66;;;1.99;100.00
13695;BME280;6919;52.344;14.518;2023-03-08T07:46:02;99122.88;;;1.91;100.00
13695;BME280;6919;52.344;14.518;2023-03-08T07:48:32;99115.41;;;2.15;100.00
13695;BME280;6919;52.344;14.518;2023-03-08T07:51:02;99121.38;;;2.17;100.00
13695;BME280;6919;52.344;14.518;2023-03-08T07:53:33;99127.34;;;2.00;100.00
13695;BME280;6919;52.344;14.518;2023-03-08T07:56:03;99125.41;;;2.21;100.00
13695;BME280;6919;52.344;14.518;2023-03-08T07:58:31;99130.44;;;2.33;100.00
13695;BME280;6919;52.344;14.518;2023-03-08T08:01:00;99138.63;;;2.02;100.00
13695;BME280;6919;52.344;14.518;2023-03-08T08:03:29;99142.00;;;2.13;100.00
13695;BME280;6919;52.344;14.518;2023-03-08T08:06:03;99136.72;;;2.32;100.00
13695;BME280;6919;52.344;14.518;2023-03-08T08:08:32;99139.63;;;2.29;100.00
13695;BME280;6919;52.344;14.518;2023-03-08T08:11:01;99137.81;;;2.30;100.00
13695;BME280;6919;52.344;14.518;2023-03-08T08:13:29;99142.84;;;2.33;100.00
13695;BME280;6919;52.344;14.518;2023-03-08T08:15:58;99138.09;;;2.27;100.00
13695;BME280;6919;52.344;14.518;2023-03-08T08:18:28;99141.72;;;2.45;100.00
13695;BME280;6919;52.344;14.518;2023-03-08T08:21:02;99135.03;;;2.50;100.00
13695;BME280;6919;52.344;14.518;2023-03-08T08:23:31;99128.63;;;2.34;100.00
13695;BME280;6919;52.344;14.518;2023-03-08T08:26:03;99128.19;;;2.00;100.00
13695;BME280;6919;52.344;14.518;2023-03-08T08:28:32;99124.47;;;2.22;100.00
13695;BME280;6919;52.344;14.518;2023-03-08T08:31:02;99129.91;;;2.30;100.00
13695;BME280;6919;52.344;14.518;2023-03-08T08:33:32;99130.28;;;2.16;100.00
13695;BME280;6919;52.344;14.518;2023-03-08T08:36:05;99123.63;;;2.40;100.00
13695;BME280;6919;52.344;14.518;2023-03-08T08:38:35;99121.81;;;2.69;100.00
13695;BME280;6919;52.344;14.518;2023-03-08T08:41:06;99116.88;;;2.93;100.00
13695;BME280;6919;52.344;14.518;2023-03-08T08:43:35;99119.75;;;2.54;100.00
13695;BME280;6919;52.344;14.518;2023-03-08T08:46:05;99116.81;;;2.28;100.00
13695;BME280;6919;52.344;14.518;2023-03-08T08:48:33;99111.34;;;2.87;100.00
13695;BME280;6919;52.344;14.518;2023-03-08T08:51:05;99107.97;;;3.04;100.00
13695;BME280;6919;52.344;14.518;2023-03-08T08:53:35;99110.75;;;3.02;100.00
13695;BME280;6919;52.344;14.518;2023-03-08T08:56:11;99111.16;;;3.07;100.00
13695;BME280;6919;52.344;14.518;2023-03-08T08:58:54;99113.06;;;3.25;100.00
13695;BME280;6919;52.344;14.518;2023-03-08T09:01:24;99104.22;;;2.97;100.00
13695;BME280;6919;52.344;14.518;2023-03-08T09:03:53;99099.66;;;2.80;100.00
13695;BME280;6919;52.344;14.518;2023-03-08T09:06:24;99099.09;;;2.67;100.00
13695;BME280;6919;52.344;14.518;2023-03-08T09:08:54;99092.13;;;2.75;100.00
13695;BME280;6919;52.344;14.518;2023-03-08T09:11:24;99089.53;;;2.47;100.00
13695;BME280;6919;52.344;14.518;2023-03-08T09:13:53;99081.03;;;2.62;100.00
13695;BME280;6919;52.344;14.518;2023-03-08T09:16:24;99079.09;;;2.45;100.00
13695;BME280;6919;52.344;14.518;2023-03-08T09:18:54;99077.25;;;2.65;100.00
13695;BME280;6919;52.344;14.518;2023-03-08T09:21:26;99076.56;;;2.72;100.00
13695;BME280;6919;52.344;14.518;2023-03-08T09:23:57;99067.38;;;2.76;100.00
13695;BME280;6919;52.344;14.518;2023-03-08T09:26:28;99060.34;;;2.94;100.00
13695;BME280;6919;52.344;14.518;2023-03-08T09:28:58;99066.41;;;3.14;100.00
13695;BME280;6919;52.344;14.518;2023-03-08T09:31:32;99064.28;;;3.17;100.00
13695;BME280;6919;52.344;14.518;2023-03-08T09:34:01;99068.69;;;3.63;100.00
13695;BME280;6919;52.344;14.518;2023-03-08T09:36:37;99056.75;;;3.50;100.00
13695;BME280;6919;52.344;14.518;2023-03-08T09:39:09;99064.00;;;3.75;100.00
13695;BME280;6919;52.344;14.518;2023-03-08T09:41:56;99070.38;;;3.82;100.00
13695;BME280;6919;52.344;14.518;2023-03-08T09:44:50;99062.19;;;3.48;100.00
13695;BME280;6919;52.344;14.518;2023-03-08T09:47:36;99065.56;;;3.77;100.00
13695;BME280;6919;52.344;14.518;2023-03-08T09:50:18;99068.41;;;3.66;100.00
13695;BME280;6919;52.344;14.518;2023-03-08T09:52:53;99067.13;;;3.43;100.00
13695;BME280;6919;52.344;14.518;2023-03-08T09:55:26;99063.56;;;3.25;100.00
13695;BME280;6919;52.344;14.518;2023-03-08T09:57:59;99059.31;;;3.42;100.00
13695;BME280;6919;52.344;14.518;2023-03-08T10:00:31;99067.28;;;3.69;100.00
13695;BME280;6919;52.344;14.518;2023-03-08T10:03:16;99062.28;;;3.83;100.00
13695;BME280;6919;52.344;14.518;2023-03-08T10:05:55;99052.00;;;4.15;100.00
13695;BME280;6919;52.344;14.518;2023-03-08T10:08:32;99042.66;;;3.76;100.00
13695;BME280;6919;52.344;14.518;2023-03-08T10:11:04;99048.00;;;4.11;100.00
13695;BME280;6919;52.344;14.518;2023-03-08T10:13:35;99053.47;;;4.27;100.00
13695;BME280;6919;52.344;14.518;2023-03-08T10:16:11;99048.31;;;4.26;100.00
13695;BME280;6919;52.344;14.518;2023-03-08T10:18:44;99043.59;;;4.37;100.00
13695;BME280;6919;52.344;14.518;2023-03-08T10:21:18;99040.56;;;4.32;100.00
13695;BME280;6919;52.344;14.518;2023-03-08T10:23:58;99044.66;;;4.27;100.00
13695;BME280;6919;52.344;14.518;2023-03-08T10:26:30;99045.56;;;4.35;100.00
13695;BME280;6919;52.344;14.518;2023-03-08T10:28:58;99043.72;;;3.83;100.00
13695;BME280;6919;52.344;14.518;2023-03-08T10:31:29;99036.31;;;3.87;100.00
13695;BME280;6919;52.344;14.518;2023-03-08T10:34:08;99039.59;;;4.16;100.00
13695;BME280;6919;52.344;14.518;2023-03-08T10:36:48;99036.84;;;4.43;100.00
13695;BME280;6919;52.344;14.518;2023-03-08T10:39:19;99027.28;;;4.75;100.00
13695;BME280;6919;52.344;14.518;2023-03-08T10:41:51;99025.19;;;4.36;100.00
13695;BME280;6919;52.344;14.518;2023-03-08T10:44:31;99037.84;;;3.89;100.00
13695;BME280;6919;52.344;14.518;2023-03-08T10:47:15;99030.47;;;4.18;100.00
13695;BME280;6919;52.344;14.518;2023-03-08T10:49:45;99030.66;;;3.99;100.00
13695;BME280;6919;52.344;14.518;2023-03-08T10:52:22;99025.13;;;3.93;100.00
13695;BME280;6919;52.344;14.518;2023-03-08T10:55:05;99030.47;;;3.83;100.00
13695;BME280;6919;52.344;14.518;2023-03-08T10:57:40;99026.53;;;4.22;100.00
13695;BME280;6919;52.344;14.518;2023-03-08T11:00:30;99027.53;;;4.64;100.00
13695;BME280;6919;52.344;14.518;2023-03-08T11:03:10;99015.84;;;4.75;100.00
13695;BME280;6919;52.344;14.518;2023-03-08T11:05:49;99017.19;;;4.53;100.00
13695;BME280;6919;52.344;14.518;2023-03-08T11:08:20;99007.00;;;4.66;100.00
13695;BME280;6919;52.344;14.518;2023-03-08T11:11:01;99012.31;;;4.49;100.00
13695;BME280;6919;52.344;14.518;2023-03-08T11:13:31;99000.47;;;4.86;100.00
13695;BME280;6919;52.344;14.518;2023-03-08T11:16:15;98986.78;;;4.99;100.00
13695;BME280;6919;52.344;14.518;2023-03-08T11:19:05;98985.47;;;4.52;100.00
13695;BME280;6919;52.344;14.518;2023-03-08T11:21:47;98978.81;;;4.48;100.00
13695;BME280;6919;52.344;14.518;2023-03-08T11:24:29;98979.03;;;4.54;100.00
13695;BME280;6919;52.344;14.518;2023-03-08T11:27:14;98976.25;;;3.78;100.00
13695;BME280;6919;52.344;14.518;2023-03-08T11:30:01;98963.16;;;3.94;100.00
13695;BME280;6919;52.344;14.518;2023-03-08T11:32:45;98961.69;;;3.82;100.00
13695;BME280;6919;52.344;14.518;2023-03-08T11:35:26;98956.47;;;4.25;100.00
13695;BME280;6919;52.344;14.518;2023-03-08T11:38:01;98957.59;;;4.73;100.00
13695;BME280;6919;52.344;14.518;2023-03-08T11:40:41;98949.56;;;4.91;100.00
13695;BME280;6919;52.344;14.518;2023-03-08T11:43:30;98947.59;;;5.01;100.00
13695;BME280;6919;52.344;14.518;2023-03-08T11:46:09;98950.69;;;4.80;100.00
13695;BME280;6919;52.344;14.518;2023-03-08T11:48:59;98960.56;;;4.70;100.00
13695;BME280;6919;52.344;14.518;2023-03-08T11:51:34;98940.44;;;4.93;100.00
13695;BME280;6919;52.344;14.518;2023-03-08T11:54:14;98937.81;;;5.01;100.00
13695;BME280;6919;52.344;14.518;2023-03-08T11:56:49;98937.75;;;4.85;100.00
13695;BME280;6919;52.344;14.518;2023-03-08T11:59:28;98939.16;;;5.05;100.00
13695;BME280;6919;52.344;14.518;2023-03-08T12:02:01;98925.03;;;4.97;100.00
13695;BME280;6919;52.344;14.518;2023-03-08T12:04:35;98923.56;;;5.02;100.00
13695;BME280;6919;52.344;14.518;2023-03-08T12:07:12;98919.03;;;5.52;100.00
13695;BME280;6919;52.344;14.518;2023-03-08T12:09:51;98911.75;;;5.70;100.00
13695;BME280;6919;52.344;14.518;2023-03-08T12:12:26;98913.19;;;5.41;100.00
13695;BME280;6919;52.344;14.518;2023-03-08T12:15:12;98915.75;;;5.50;100.00
13695;BME280;6919;52.344;14.518;2023-03-08T12:17:45;98905.16;;;5.90;100.00
13695;BME280;6919;52.344;14.518;2023-03-08T12:20:17;98903.84;;;5.94;100.00
13695;BME280;6919;52.344;14.518;2023-03-08T12:22:53;98892.13;;;5.63;100.00
13695;BME280;6919;52.344;14.518;2023-03-08T12:25:26;98901.66;;;5.82;100.00
13695;BME280;6919;52.344;14.518;2023-03-08T12:28:00;98893.53;;;5.83;100.00
13695;BME280;6919;52.344;14.518;2023-03-08T12:30:41;98882.84;;;5.67;100.00
13695;BME280;6919;52.344;14.518;2023-03-08T12:33:12;98879.81;;;5.46;100.00
13695;BME280;6919;52.344;14.518;2023-03-08T12:35:50;98878.69;;;5.57;100.00
13695;BME280;6919;52.344;14.518;2023-03-08T12:38:31;98882.78;;;5.35;100.00
13695;BME280;6919;52.344;14.518;2023-03-08T12:41:01;98877.41;;;5.03;100.00
13695;BME280;6919;52.344;14.518;2023-03-08T12:43:31;98869.50;;;5.19;100.00
13695;BME280;6919;52.344;14.518;2023-03-08T12:46:05;98867.78;;;5.10;100.00
13695;BME280;6919;52.344;14.518;2023-03-08T12:48:36;98867.31;;;5.15;100.00
13695;BME280;6919;52.344;14.518;2023-03-08T12:51:16;98865.34;;;5.33;100.00
13695;BME280;6919;52.344;14.518;2023-03-08T12:53:57;98860.53;;;5.28;100.00
13695;BME280;6919;52.344;14.518;2023-03-08T12:56:30;98862.31;;;5.04;100.00
13695;BME280;6919;52.344;14.518;2023-03-08T12:59:00;98862.91;;;5.47;100.00
13695;BME280;6919;52.344;14.518;2023-03-08T13:01:34;98864.34;;;5.34;100.00
13695;BME280;6919;52.344;14.518;2023-03-08T13:04:05;98854.25;;;5.45;100.00
13695;BME280;6919;52.344;14.518;2023-03-08T13:06:59;98864.50;;;5.16;100.00
13695;BME280;6919;52.344;14.518;2023-03-08T13:09:34;98857.84;;;5.20;100.00
13695;BME280;6919;52.344;14.518;2023-03-08T13:12:21;98855.88;;;5.22;100.00
13695;BME280;6919;52.344;14.518;2023-03-08T13:15:17;98860.03;;;5.17;100.00
13695;BME280;6919;52.344;14.518;2023-03-08T13:17:52;98852.06;;;5.17;100.00
13695;BME280;6919;52.344;14.518;2023-03-08T13:20:23;98858.84;;;5.11;100.00
13695;BME280;6919;52.344;14.518;2023-03-08T13:23:00;98866.06;;;4.93;100.00
13695;BME280;6919;52.344;14.518;2023-03-08T13:25:51;98862.63;;;5.01;100.00